createdAt,value
2022-10-08T00:03:54.196Z,101499.31
2022-10-08T00:07:56.048Z,101506.69
2022-10-08T00:11:57.900Z,101507.19
2022-10-08T00:15:59.631Z,101507.19
2022-10-08T00:20:01.473Z,101507.03
2022-10-08T00:24:05.438Z,101517.06
2022-10-08T00:28:07.425Z,101524.13
2022-10-08T00:32:09.154Z,101525.09
2022-10-08T00:36:13.179Z,101523.28
2022-10-08T00:40:15.951Z,101527.63
2022-10-08T00:44:50.816Z,101516.75
2022-10-08T00:49:11.626Z,101518.44
2022-10-08T00:53:13.553Z,101521.59
2022-10-08T00:57:16.324Z,101524.44
2022-10-08T01:01:18.125Z,101523.28
2022-10-08T01:05:30.746Z,101513.91
2022-10-08T01:09:38.893Z,101522.63
2022-10-08T01:14:09.446Z,101529.66
2022-10-08T01:18:26.382Z,101509.06
2022-10-08T01:23:22.206Z,101521.28
2022-10-08T01:27:39.465Z,101521.97
2022-10-08T01:31:46.907Z,101520.31
2022-10-08T01:35:54.211Z,101514.25
2022-10-08T01:39:59.627Z,101518.25
2022-10-08T01:44:13.125Z,101509.88
2022-10-08T01:48:21.885Z,101512.38
2022-10-08T01:52:28.447Z,101520.91
2022-10-08T01:56:33.224Z,101523.59
2022-10-08T02:00:36.650Z,101529.94
2022-10-08T02:04:38.507Z,101528.25
2022-10-08T02:08:40.231Z,101526.59
2022-10-08T02:12:44.410Z,101528.56
2022-10-08T02:16:53.466Z,101534.59
2022-10-08T02:21:07.334Z,101534.91
2022-10-08T02:25:16.819Z,101534.53
2022-10-08T02:29:25.093Z,101535.03
2022-10-08T02:33:36.758Z,101539.88
2022-10-08T02:37:49.781Z,101531.31
2022-10-08T02:41:55.926Z,101545.88
2022-10-08T02:46:03.049Z,101539.13
2022-10-08T02:50:12.725Z,101534.97
2022-10-08T02:54:16.184Z,101553.84
2022-10-08T02:58:18.488Z,101558.69
2022-10-08T03:02:37.551Z,101566.19
2022-10-08T03:06:40.224Z,101577.56
2022-10-08T03:10:43.745Z,101574.50
2022-10-08T03:14:48.420Z,101568.47
2022-10-08T03:18:52.262Z,101578.13
2022-10-08T03:22:56.507Z,101580.28
2022-10-08T03:26:58.833Z,101584.94
2022-10-08T03:31:06.861Z,101581.41
2022-10-08T03:35:08.939Z,101583.56
2022-10-08T03:39:11.791Z,101582.06
2022-10-08T03:43:13.434Z,101589.25
2022-10-08T03:47:15.264Z,101596.56
2022-10-08T03:51:18.865Z,101602.75
2022-10-08T03:55:20.523Z,101599.22
2022-10-08T03:59:22.381Z,101604.75
2022-10-08T04:03:25.940Z,101608.41
2022-10-08T04:07:27.847Z,101605.06
2022-10-08T04:11:30.200Z,101615.75
2022-10-08T04:15:31.927Z,101624.78
2022-10-08T04:19:33.909Z,101631.81
2022-10-08T04:23:38.483Z,101624.47
2022-10-08T04:27:40.282Z,101629.50
2022-10-08T04:31:41.957Z,101635.69
2022-10-08T04:35:43.596Z,101633.19
2022-10-08T04:39:45.259Z,101638.28
2022-10-08T04:43:47.222Z,101641.63
2022-10-08T04:47:48.870Z,101646.69
2022-10-08T04:51:50.578Z,101647.81
2022-10-08T04:55:53.383Z,101640.78
2022-10-08T05:00:17.087Z,101646.97
2022-10-08T05:04:16.657Z,101654.03
2022-10-08T05:08:18.331Z,101659.38
2022-10-08T05:12:19.981Z,101667.41
2022-10-08T05:16:22.293Z,101669.56
2022-10-08T05:20:24.275Z,101680.28
2022-10-08T05:24:26.090Z,101672.34
2022-10-08T05:28:28.594Z,101691.25
2022-10-08T05:32:30.355Z,101681.69
2022-10-08T05:36:33.611Z,101685.06
2022-10-08T05:40:35.289Z,101697.44
2022-10-08T05:44:37.864Z,101706.31
2022-10-08T05:48:40.665Z,101706.31
2022-10-08T05:52:42.423Z,101712.41
2022-10-08T05:56:44.397Z,101717.06
2022-10-08T06:00:57.086Z,101729.47
2022-10-08T06:04:58.979Z,101733.13
2022-10-08T06:09:02.087Z,101741.69
2022-10-08T06:13:03.752Z,101753.78
2022-10-08T06:17:05.417Z,101752.66
2022-10-08T06:21:13.309Z,101755.22
2022-10-08T06:25:15.016Z,101762.41
2022-10-08T06:29:18.626Z,101784.69
2022-10-08T06:33:20.296Z,101793.56
2022-10-08T06:37:21.957Z,101796.91
2022-10-08T06:41:24.596Z,101811.53
2022-10-08T06:45:26.345Z,101807.56
2022-10-08T06:49:27.982Z,101813.47
2022-10-08T06:53:29.854Z,101817.53
2022-10-08T06:57:31.548Z,101825.94
2022-10-08T07:01:34.744Z,101825.34
2022-10-08T07:05:36.543Z,101832.06
2022-10-08T07:09:38.384Z,101847.56
2022-10-08T07:13:40.985Z,101843.56
2022-10-08T07:17:42.647Z,101853.00
2022-10-08T07:21:44.480Z,101853.53
2022-10-08T07:25:58.758Z,101859.41
2022-10-08T07:30:00.432Z,101867.00
2022-10-08T07:34:04.904Z,101872.91
2022-10-08T07:38:06.651Z,101875.13
2022-10-08T07:42:08.313Z,101890.59
2022-10-08T07:46:12.206Z,101895.50
2022-10-08T07:50:14.038Z,101906.59
2022-10-08T07:54:18.302Z,101905.44
2022-10-08T07:58:19.969Z,101910.50
2022-10-08T08:02:21.704Z,101920.94
2022-10-08T08:06:24.588Z,101933.16
2022-10-08T08:10:26.242Z,101927.38
2022-10-08T08:14:28.007Z,101927.91
2022-10-08T08:18:32.091Z,101923.91
2022-10-08T08:22:33.803Z,101947.72
2022-10-08T08:26:38.288Z,101954.50
2022-10-08T08:30:39.952Z,101960.22
2022-10-08T08:34:41.626Z,101964.81
2022-10-08T08:38:43.342Z,101966.06
2022-10-08T08:42:53.982Z,101982.53
2022-10-08T08:47:18.517Z,101972.56
2022-10-08T08:51:20.405Z,101994.47
2022-10-08T08:55:33.148Z,102000.53
2022-10-08T08:59:41.566Z,101997.16
2022-10-08T09:03:53.107Z,102006.22
2022-10-08T09:08:10.833Z,102019.03
2022-10-08T09:12:20.984Z,102017.38
2022-10-08T09:16:23.417Z,102015.69
2022-10-08T09:20:25.830Z,102040.56
2022-10-08T09:24:29.818Z,102034.88
2022-10-08T09:28:41.671Z,102039.06
2022-10-08T09:32:43.409Z,102040.13
2022-10-08T09:36:46.855Z,102063.53
2022-10-08T09:41:18.701Z,102061.59
2022-10-08T09:45:49.966Z,102062.91
2022-10-08T09:50:19.152Z,102065.19
2022-10-08T09:54:26.195Z,102074.50
2022-10-08T09:58:32.087Z,102076.81
2022-10-08T10:02:36.761Z,102079.38
2022-10-08T10:06:43.844Z,102082.66
2022-10-08T10:10:46.628Z,102092.59
2022-10-08T10:14:56.519Z,102093.56
2022-10-08T10:19:04.788Z,102099.56
2022-10-08T10:23:12.067Z,102098.41
2022-10-08T10:27:20.503Z,102096.78
2022-10-08T10:31:30.994Z,102111.75
2022-10-08T10:35:33.273Z,102117.84
2022-10-08T10:39:41.138Z,102119.16
2022-10-08T10:43:57.746Z,102119.81
2022-10-08T10:48:00.228Z,102129.50
2022-10-08T10:52:23.825Z,102130.94
2022-10-08T10:56:31.088Z,102131.47
2022-10-08T11:00:40.405Z,102135.59
2022-10-08T11:05:01.856Z,102147.53
2022-10-08T11:09:24.128Z,102144.72
2022-10-08T11:13:48.393Z,102148.69
2022-10-08T11:18:05.383Z,102149.84
2022-10-08T11:22:49.659Z,102141.94
2022-10-08T11:27:11.687Z,102156.94
2022-10-08T11:31:45.702Z,102158.44
2022-10-08T11:35:58.970Z,102166.19
2022-10-08T11:40:15.134Z,102157.13
2022-10-08T11:44:17.794Z,102161.88
2022-10-08T11:48:33.495Z,102173.78
2022-10-08T11:52:35.697Z,102165.13
2022-10-08T11:56:40.383Z,102162.59
2022-10-08T12:00:45.236Z,102154.25
2022-10-08T12:04:48.870Z,102156.50
2022-10-08T12:08:53.245Z,102164.88
2022-10-08T12:12:56.385Z,102157.63
2022-10-08T12:16:57.985Z,102161.97
2022-10-08T12:21:25.912Z,102174.88
2022-10-08T12:25:33.468Z,102168.22
2022-10-08T12:30:13.104Z,102174.63
2022-10-08T12:34:18.695Z,102173.16
2022-10-08T12:38:42.638Z,102187.38
2022-10-08T12:42:47.265Z,102188.56
2022-10-08T12:47:03.764Z,102192.56
2022-10-08T12:51:26.610Z,102195.94
2022-10-08T12:55:35.626Z,102193.41
2022-10-08T12:59:42.854Z,102199.34
2022-10-08T13:03:44.666Z,102192.59
2022-10-08T13:07:46.715Z,102195.34
2022-10-08T13:11:53.700Z,102192.13
2022-10-08T13:16:02.140Z,102195.09
2022-10-08T13:20:10.002Z,102200.75
2022-10-08T13:24:11.791Z,102199.09
2022-10-08T13:28:41.747Z,102197.66
2022-10-08T13:32:44.269Z,102204.59
2022-10-08T13:36:52.855Z,102200.16
2022-10-08T13:40:59.135Z,102213.59
2022-10-08T13:45:03.265Z,102220.00
2022-10-08T13:49:18.587Z,102226.75
2022-10-08T13:53:23.257Z,102222.03
2022-10-08T13:57:25.201Z,102238.16
2022-10-08T14:01:26.919Z,102232.03
2022-10-08T14:05:32.338Z,102234.47
2022-10-08T14:09:34.017Z,102237.41
2022-10-08T14:13:36.223Z,102232.03
2022-10-08T14:17:37.933Z,102235.03
2022-10-08T14:21:40.484Z,102234.47
2022-10-08T14:25:42.326Z,102232.50
2022-10-08T14:29:44.032Z,102243.06
2022-10-08T14:33:45.721Z,102253.69
2022-10-08T14:37:47.650Z,102247.69
2022-10-08T14:41:49.471Z,102248.44
2022-10-08T14:45:51.210Z,102253.53
2022-10-08T14:49:55.726Z,102246.06
2022-10-08T14:53:57.373Z,102256.03
2022-10-08T14:57:59.036Z,102260.59
2022-10-08T15:02:00.767Z,102263.44
2022-10-08T15:06:02.512Z,102260.59
2022-10-08T15:10:05.605Z,102266.84
2022-10-08T15:14:07.468Z,102264.63
2022-10-08T15:18:11.378Z,102262.09
2022-10-08T15:22:13.072Z,102263.78
2022-10-08T15:26:17.761Z,102260.50
2022-10-08T15:30:19.440Z,102261.91
2022-10-08T15:34:21.482Z,102270.63
2022-10-08T15:38:23.317Z,102271.63
2022-10-08T15:42:25.050Z,102269.66
2022-10-08T15:46:29.036Z,102261.97
2022-10-08T15:50:30.909Z,102277.09
2022-10-08T15:54:35.815Z,102270.75
2022-10-08T15:58:50.268Z,102276.72
2022-10-08T16:02:55.275Z,102288.03
2022-10-08T16:06:57.164Z,102287.50
2022-10-08T16:11:09.249Z,102290.63
2022-10-08T16:15:11.140Z,102289.97
2022-10-08T16:19:18.102Z,102294.63
2022-10-08T16:23:19.877Z,102293.91
2022-10-08T16:27:21.545Z,102305.66
2022-10-08T16:31:26.099Z,102311.66
2022-10-08T16:35:27.847Z,102315.59
2022-10-08T16:39:29.622Z,102322.25
2022-10-08T16:43:31.304Z,102323.53
2022-10-08T16:47:33.090Z,102325.84
2022-10-08T16:51:36.825Z,102320.19
2022-10-08T16:55:39.636Z,102322.47
2022-10-08T16:59:41.287Z,102323.59
2022-10-08T17:03:43.058Z,102337.56
2022-10-08T17:07:44.746Z,102333.50
2022-10-08T17:11:46.886Z,102339.47
2022-10-08T17:15:59.335Z,102344.84
2022-10-08T17:20:01.218Z,102349.34
2022-10-08T17:24:03.297Z,102354.75
2022-10-08T17:28:05.066Z,102356.31
2022-10-08T17:32:06.812Z,102370.28
2022-10-08T17:36:11.984Z,102372.53
2022-10-08T17:40:13.920Z,102364.34
2022-10-08T17:44:15.627Z,102376.19
2022-10-08T17:48:17.386Z,102377.59
2022-10-08T17:52:19.119Z,102387.75
2022-10-08T17:56:21.511Z,102383.78
2022-10-08T18:00:25.788Z,102391.25
2022-10-08T18:04:27.558Z,102386.06
2022-10-08T18:08:29.263Z,102398.72
2022-10-08T18:12:31.083Z,102394.47
2022-10-08T18:16:33.499Z,102404.63
2022-10-08T18:20:35.237Z,102410.28
2022-10-08T18:24:36.938Z,102410.28
2022-10-08T18:28:38.709Z,102411.97
2022-10-08T18:32:40.502Z,102418.19
2022-10-08T18:36:42.621Z,102420.44
2022-10-08T18:40:44.312Z,102418.13
2022-10-08T18:44:46.061Z,102427.44
2022-10-08T18:48:47.953Z,102428.84
2022-10-08T18:52:50.065Z,102429.25
2022-10-08T18:56:52.143Z,102434.16
2022-10-08T19:00:55.435Z,102435.13
2022-10-08T19:04:58.152Z,102436.13
2022-10-08T19:09:00.647Z,102441.47
2022-10-08T19:13:02.330Z,102447.78
2022-10-08T19:17:04.218Z,102444.84
2022-10-08T19:21:10.812Z,102449.09
2022-10-08T19:25:12.556Z,102451.63
2022-10-08T19:29:20.021Z,102451.63
2022-10-08T19:33:21.731Z,102450.66
2022-10-08T19:37:23.400Z,102458.72
2022-10-08T19:41:26.312Z,102449.25
2022-10-08T19:45:28.081Z,102455.81
2022-10-08T19:49:29.783Z,102456.34
2022-10-08T19:53:31.586Z,102458.84
2022-10-08T19:57:33.382Z,102458.53
2022-10-08T20:01:36.962Z,102463.56
2022-10-08T20:05:38.757Z,102460.44
2022-10-08T20:09:40.459Z,102464.34
2022-10-08T20:13:43.693Z,102466.56
2022-10-08T20:17:45.463Z,102476.09
2022-10-08T20:21:48.146Z,102473.66
2022-10-08T20:25:49.829Z,102483.91
2022-10-08T20:29:51.536Z,102479.06
2022-10-08T20:34:32.670Z,102481.06
2022-10-08T20:38:34.496Z,102492.59
2022-10-08T20:42:36.152Z,102486.41
2022-10-08T20:46:38.416Z,102481.31
2022-10-08T20:50:40.124Z,102484.22
2022-10-08T20:54:42.918Z,102484.47
2022-10-08T20:58:44.867Z,102485.72
2022-10-08T21:02:46.721Z,102478.94
2022-10-08T21:06:50.285Z,102476.78
2022-10-08T21:10:52.045Z,102481.66
2022-10-08T21:14:53.775Z,102476.84
2022-10-08T21:18:58.473Z,102475.94
2022-10-08T21:23:00.169Z,102482.19
2022-10-08T21:27:01.908Z,102478.06
2022-10-08T21:31:04.624Z,102485.50
2022-10-08T21:35:06.635Z,102490.34
2022-10-08T21:39:13.430Z,102485.38
2022-10-08T21:43:15.115Z,102484.78
2022-10-08T21:47:16.786Z,102484.19
2022-10-08T21:51:22.303Z,102479.09
2022-10-08T21:55:24.163Z,102484.94
2022-10-08T21:59:26.813Z,102487.13
2022-10-08T22:03:28.598Z,102483.75
2022-10-08T22:07:30.262Z,102487.38
2022-10-08T22:11:31.933Z,102477.78
2022-10-08T22:15:33.600Z,102478.03
2022-10-08T22:19:45.843Z,102478.16
2022-10-08T22:23:48.422Z,102482.53
2022-10-08T22:27:50.087Z,102480.09
2022-10-08T22:31:53.814Z,102481.09
2022-10-08T22:36:02.841Z,102482.19
2022-10-08T22:40:04.962Z,102470.66
2022-10-08T22:44:06.749Z,102472.34
2022-10-08T22:48:08.633Z,102466.16
2022-10-08T22:52:10.305Z,102468.94
2022-10-08T22:56:18.738Z,102466.59
2022-10-08T23:00:20.398Z,102468.66
2022-10-08T23:04:22.177Z,102474.97
2022-10-08T23:08:23.933Z,102462.13
2022-10-08T23:12:25.836Z,102465.06
2022-10-08T23:16:29.527Z,102461.63
2022-10-08T23:20:31.263Z,102468.94
2022-10-08T23:24:34.176Z,102466.38
2022-10-08T23:28:37.858Z,102478.41
2022-10-08T23:32:39.795Z,102479.34
2022-10-08T23:36:43.204Z,102473.16
2022-10-08T23:40:44.917Z,102471.63
2022-10-08T23:44:46.739Z,102465.41
2022-10-08T23:48:49.614Z,102470.13
2022-10-08T23:52:51.543Z,102477.66
2022-10-08T23:56:53.277Z,102467.22
